createdAt,value
2019-03-29T00:00:13.665Z,0
2019-03-29T00:01:13.764Z,0
2019-03-29T00:02:13.908Z,0
2019-03-29T00:03:14.026Z,0
2019-03-29T00:04:14.119Z,0
2019-03-29T00:05:14.215Z,0
2019-03-29T00:06:14.318Z,0
2019-03-29T00:07:14.466Z,0
2019-03-29T00:08:14.567Z,0
2019-03-29T00:09:14.682Z,0
2019-03-29T00:10:14.789Z,0
2019-03-29T00:11:14.911Z,0
2019-03-29T00:12:15.081Z,0
2019-03-29T00:13:14.999Z,0
2019-03-29T00:14:15.801Z,0
2019-03-29T00:15:15.197Z,0
2019-03-29T00:16:15.301Z,0
2019-03-29T00:17:15.457Z,0
2019-03-29T00:18:15.424Z,0
2019-03-29T00:19:15.537Z,0
2019-03-29T00:20:15.632Z,0
2019-03-29T00:21:15.734Z,0
2019-03-29T00:22:15.906Z,0
2019-03-29T00:23:16.028Z,0
2019-03-29T00:24:16.145Z,0
2019-03-29T00:25:16.241Z,0
2019-03-29T00:26:16.379Z,0
2019-03-29T00:27:16.530Z,0
2019-03-29T00:28:16.650Z,0
2019-03-29T00:29:16.755Z,0
2019-03-29T00:30:16.909Z,0
2019-03-29T00:31:16.834Z,0
2019-03-29T00:32:17.002Z,0
2019-03-29T00:33:17.000Z,0
2019-03-29T00:34:17.104Z,0
2019-03-29T00:35:17.274Z,0
2019-03-29T00:36:17.383Z,0
2019-03-29T00:37:18.051Z,0
2019-03-29T00:38:17.499Z,0
2019-03-29T00:39:17.587Z,0
2019-03-29T00:40:17.688Z,0
2019-03-29T00:41:17.776Z,0
2019-03-29T00:42:17.895Z,0
2019-03-29T00:43:18.034Z,0
2019-03-29T00:44:18.146Z,0
2019-03-29T00:45:18.938Z,0
2019-03-29T00:46:18.431Z,0
2019-03-29T00:47:18.522Z,0
2019-03-29T00:48:18.654Z,0
2019-03-29T00:49:18.763Z,0
2019-03-29T00:50:18.870Z,0
2019-03-29T00:51:18.989Z,0
2019-03-29T00:52:19.091Z,0
2019-03-29T00:53:19.230Z,0
2019-03-29T00:54:19.342Z,0
2019-03-29T00:55:20.200Z,0
2019-03-29T00:56:19.537Z,0
2019-03-29T00:57:19.635Z,0
2019-03-29T00:58:19.638Z,0
2019-03-29T00:59:19.730Z,0
2019-03-29T01:00:19.855Z,0
2019-03-29T01:01:20.972Z,0
2019-03-29T01:02:20.082Z,0
2019-03-29T01:03:20.221Z,0
2019-03-29T01:04:20.326Z,0
2019-03-29T01:05:20.969Z,0
2019-03-29T01:06:20.582Z,0
2019-03-29T01:07:20.685Z,0
2019-03-29T01:08:20.839Z,0
2019-03-29T01:09:20.948Z,0
2019-03-29T01:10:21.079Z,0
2019-03-29T01:11:21.181Z,0
2019-03-29T01:12:21.329Z,0
2019-03-29T01:13:21.477Z,0
2019-03-29T01:14:21.573Z,0
2019-03-29T01:15:21.693Z,0
2019-03-29T01:16:21.802Z,0
2019-03-29T01:17:21.901Z,0
2019-03-29T01:18:22.080Z,0
2019-03-29T01:19:22.188Z,0
2019-03-29T01:20:22.286Z,0
2019-03-29T01:21:22.406Z,0
2019-03-29T01:22:22.505Z,0
2019-03-29T01:23:24.080Z,0
2019-03-29T01:24:22.784Z,0
2019-03-29T01:25:22.906Z,0
2019-03-29T01:26:23.011Z,0
2019-03-29T01:27:23.120Z,0
2019-03-29T01:28:23.268Z,0
2019-03-29T01:29:23.379Z,0
2019-03-29T01:30:23.468Z,0
2019-03-29T01:31:23.568Z,0
2019-03-29T01:32:23.672Z,0
2019-03-29T01:33:24.289Z,0
2019-03-29T01:34:24.980Z,0
2019-03-29T01:35:24.058Z,0
2019-03-29T01:36:24.155Z,0
2019-03-29T01:37:24.289Z,0
2019-03-29T01:38:24.688Z,0
2019-03-29T01:39:24.528Z,0
2019-03-29T01:40:24.658Z,0
2019-03-29T01:41:24.803Z,0
2019-03-29T01:42:24.939Z,0
2019-03-29T01:43:25.085Z,0
2019-03-29T01:44:25.206Z,0
2019-03-29T01:45:25.308Z,0
2019-03-29T01:46:25.439Z,0
2019-03-29T01:47:25.547Z,0
2019-03-29T01:48:25.697Z,0
2019-03-29T01:49:25.821Z,0
2019-03-29T01:50:25.938Z,0
2019-03-29T01:51:27.212Z,0
2019-03-29T01:52:26.137Z,0
2019-03-29T01:53:26.253Z,0
2019-03-29T01:54:26.370Z,0
2019-03-29T01:55:26.467Z,0
2019-03-29T01:56:26.577Z,0
2019-03-29T01:57:26.686Z,0
2019-03-29T01:58:26.819Z,0
2019-03-29T01:59:26.925Z,0
2019-03-29T02:00:27.030Z,0
2019-03-29T02:01:28.407Z,0
2019-03-29T02:02:27.245Z,0
2019-03-29T02:03:27.418Z,0
2019-03-29T02:04:27.525Z,0
2019-03-29T02:05:27.759Z,0
2019-03-29T02:06:27.717Z,0
2019-03-29T02:07:27.836Z,0
2019-03-29T02:08:35.402Z,0
2019-03-29T02:09:29.131Z,0
2019-03-29T02:10:28.241Z,0
2019-03-29T02:11:28.396Z,0
2019-03-29T02:12:28.539Z,0
2019-03-29T02:13:28.681Z,0
2019-03-29T02:14:28.702Z,0
2019-03-29T02:15:28.830Z,0
2019-03-29T02:16:29.270Z,0
2019-03-29T02:17:29.084Z,0
2019-03-29T02:18:29.262Z,0
2019-03-29T02:19:29.359Z,0
2019-03-29T02:20:29.479Z,0
2019-03-29T02:21:29.589Z,0
2019-03-29T02:22:29.698Z,0
2019-03-29T02:23:30.211Z,0
2019-03-29T02:24:29.849Z,0
2019-03-29T02:25:29.965Z,0
2019-03-29T02:26:30.066Z,0
2019-03-29T02:27:30.184Z,0
2019-03-29T02:28:30.346Z,0
2019-03-29T02:29:31.287Z,0
2019-03-29T02:30:31.900Z,0
2019-03-29T02:31:30.494Z,0
2019-03-29T02:32:31.669Z,0
2019-03-29T02:33:30.634Z,0
2019-03-29T02:34:30.586Z,0
2019-03-29T02:35:30.710Z,0
2019-03-29T02:36:30.797Z,0
2019-03-29T02:37:30.895Z,0
2019-03-29T02:38:31.005Z,0
2019-03-29T02:39:32.006Z,0
2019-03-29T02:40:31.103Z,0
2019-03-29T02:41:31.211Z,0
2019-03-29T02:42:31.323Z,0
2019-03-29T02:43:31.425Z,0
2019-03-29T02:44:31.558Z,0
2019-03-29T02:45:31.652Z,0
2019-03-29T02:46:31.763Z,0
2019-03-29T02:47:31.872Z,0
2019-03-29T02:48:32.006Z,0
2019-03-29T02:49:32.109Z,0
2019-03-29T02:50:32.220Z,0
2019-03-29T02:51:32.812Z,0
2019-03-29T02:52:32.435Z,0
2019-03-29T02:53:32.557Z,0
2019-03-29T02:54:32.635Z,0
2019-03-29T02:55:32.752Z,0
2019-03-29T02:56:32.854Z,0
2019-03-29T02:57:32.959Z,0
2019-03-29T02:58:33.182Z,0
2019-03-29T02:59:33.158Z,0
2019-03-29T03:00:33.180Z,0
2019-03-29T03:01:33.280Z,0
2019-03-29T03:02:33.391Z,0
2019-03-29T03:03:33.502Z,0
2019-03-29T03:04:33.495Z,0
2019-03-29T03:05:33.595Z,0
2019-03-29T03:06:33.712Z,0
2019-03-29T03:07:33.809Z,0
2019-03-29T03:08:33.873Z,0
2019-03-29T03:09:34.009Z,0
2019-03-29T03:10:34.106Z,0
2019-03-29T03:11:34.213Z,0
2019-03-29T03:12:34.319Z,0
2019-03-29T03:13:34.420Z,0
2019-03-29T03:14:34.432Z,0
2019-03-29T03:15:34.537Z,0
2019-03-29T03:16:34.629Z,0
2019-03-29T03:17:34.738Z,0
2019-03-29T03:18:34.839Z,0
2019-03-29T03:19:34.969Z,0
2019-03-29T03:20:35.087Z,0
2019-03-29T03:21:35.209Z,0
2019-03-29T03:22:35.278Z,0
2019-03-29T03:23:35.382Z,0
2019-03-29T03:24:35.530Z,0
2019-03-29T03:25:35.631Z,0
2019-03-29T03:26:35.723Z,0
2019-03-29T03:27:35.821Z,0
2019-03-29T03:28:35.928Z,0
2019-03-29T03:29:36.053Z,0
2019-03-29T03:30:37.145Z,0
2019-03-29T03:31:36.258Z,0
2019-03-29T03:32:36.347Z,0
2019-03-29T03:33:36.446Z,0
2019-03-29T03:34:36.582Z,0
2019-03-29T03:35:36.698Z,0
2019-03-29T03:36:36.799Z,0
2019-03-29T03:37:36.912Z,0
2019-03-29T03:38:37.032Z,0
2019-03-29T03:39:37.180Z,0
2019-03-29T03:40:37.283Z,0
2019-03-29T03:41:37.375Z,0
2019-03-29T03:42:37.476Z,0
2019-03-29T03:43:37.597Z,0
2019-03-29T03:44:37.719Z,0
2019-03-29T03:45:37.822Z,0
2019-03-29T03:46:37.920Z,0
2019-03-29T03:47:38.022Z,0
2019-03-29T03:48:38.126Z,0
2019-03-29T03:49:38.256Z,0
2019-03-29T03:50:38.362Z,0
2019-03-29T03:51:38.465Z,0
2019-03-29T03:52:38.568Z,0
2019-03-29T03:53:38.677Z,0
2019-03-29T03:54:38.819Z,0
2019-03-29T03:55:38.934Z,0
2019-03-29T03:56:39.040Z,0
2019-03-29T03:57:39.144Z,0
2019-03-29T03:58:39.419Z,0
2019-03-29T03:59:39.398Z,0
2019-03-29T04:00:39.501Z,0
2019-03-29T04:01:39.619Z,0
2019-03-29T04:02:39.727Z,0
2019-03-29T04:03:39.832Z,0
2019-03-29T04:04:39.950Z,0
2019-03-29T04:05:40.051Z,0
2019-03-29T04:06:40.158Z,0
2019-03-29T04:07:40.267Z,0
2019-03-29T04:08:40.361Z,0
2019-03-29T04:09:48.919Z,0
2019-03-29T04:10:42.223Z,0
2019-03-29T04:11:40.634Z,0
2019-03-29T04:12:40.729Z,0
2019-03-29T04:13:40.837Z,0
2019-03-29T04:14:41.011Z,0
2019-03-29T04:15:40.937Z,0
2019-03-29T04:16:41.036Z,0
2019-03-29T04:17:41.131Z,0
2019-03-29T04:18:41.228Z,0
2019-03-29T04:19:41.371Z,0
2019-03-29T04:20:41.476Z,0
2019-03-29T04:21:41.616Z,0
2019-03-29T04:22:41.694Z,0
2019-03-29T04:23:41.850Z,0
2019-03-29T04:24:41.955Z,0
2019-03-29T04:25:41.898Z,0
2019-03-29T04:26:42.013Z,0
2019-03-29T04:27:42.111Z,0
2019-03-29T04:28:42.227Z,0
2019-03-29T04:29:43.343Z,0
2019-03-29T04:30:42.303Z,0
2019-03-29T04:31:42.421Z,0
2019-03-29T04:32:42.563Z,0
2019-03-29T04:33:42.664Z,0
2019-03-29T04:34:42.801Z,0
2019-03-29T04:35:42.908Z,0
2019-03-29T04:36:43.012Z,1
2019-03-29T04:37:43.115Z,1
2019-03-29T04:38:43.242Z,0
2019-03-29T04:39:43.348Z,1
2019-03-29T04:40:44.475Z,1
2019-03-29T04:41:43.631Z,1
2019-03-29T04:42:43.738Z,2
2019-03-29T04:43:43.860Z,1
2019-03-29T04:44:44.007Z,2
2019-03-29T04:45:44.149Z,2
2019-03-29T04:46:44.264Z,3
2019-03-29T04:47:44.374Z,3
2019-03-29T04:48:44.479Z,4
2019-03-29T04:49:44.609Z,5
2019-03-29T04:50:44.605Z,6
2019-03-29T04:51:44.700Z,7
2019-03-29T04:52:44.820Z,8
2019-03-29T04:53:44.956Z,10
2019-03-29T04:54:45.062Z,13
2019-03-29T04:55:45.078Z,14
2019-03-29T04:56:45.187Z,17
2019-03-29T04:57:46.309Z,20
2019-03-29T04:58:45.470Z,25
2019-03-29T04:59:45.574Z,29
2019-03-29T05:00:45.729Z,34
2019-03-29T05:01:45.834Z,39
2019-03-29T05:02:45.958Z,46
2019-03-29T05:03:46.069Z,52
2019-03-29T05:04:46.173Z,60
2019-03-29T05:05:46.310Z,69
2019-03-29T05:06:46.438Z,79
2019-03-29T05:07:46.453Z,88
2019-03-29T05:08:46.587Z,99
2019-03-29T05:09:46.731Z,112
2019-03-29T05:10:46.717Z,126
2019-03-29T05:11:46.828Z,139
2019-03-29T05:12:46.819Z,152
2019-03-29T05:13:46.938Z,167
2019-03-29T05:14:47.001Z,184
2019-03-29T05:15:47.112Z,202
2019-03-29T05:16:47.112Z,219
2019-03-29T05:17:47.113Z,240
2019-03-29T05:18:47.269Z,263
2019-03-29T05:19:47.261Z,281
2019-03-29T05:20:47.306Z,301
2019-03-29T05:21:47.302Z,328
2019-03-29T05:22:47.469Z,353
2019-03-29T05:23:47.505Z,378
2019-03-29T05:24:47.557Z,398
2019-03-29T05:25:47.668Z,427
2019-03-29T05:26:47.697Z,452
2019-03-29T05:27:47.777Z,481
2019-03-29T05:28:47.816Z,507
2019-03-29T05:29:47.887Z,523
2019-03-29T05:30:47.991Z,565
2019-03-29T05:31:48.079Z,585
2019-03-29T05:32:48.111Z,627
2019-03-29T05:33:48.159Z,633
2019-03-29T05:34:48.222Z,677
2019-03-29T05:35:48.334Z,692
2019-03-29T05:36:48.387Z,722
2019-03-29T05:37:49.562Z,775
2019-03-29T05:38:48.453Z,770
2019-03-29T05:39:48.534Z,814
2019-03-29T05:40:48.637Z,843
2019-03-29T05:41:48.693Z,866
2019-03-29T05:42:48.749Z,872
2019-03-29T05:43:48.802Z,911
2019-03-29T05:44:48.853Z,965
2019-03-29T05:45:48.941Z,989
2019-03-29T05:46:48.987Z,973
2019-03-29T05:47:49.049Z,1025
2019-03-29T05:48:49.129Z,1056
2019-03-29T05:49:49.184Z,1081
2019-03-29T05:50:49.254Z,1118
2019-03-29T05:51:49.308Z,1153
2019-03-29T05:52:49.361Z,1151
2019-03-29T05:53:49.406Z,1175
2019-03-29T05:54:49.449Z,1187
2019-03-29T05:55:49.518Z,1233
2019-03-29T05:56:49.563Z,1270
2019-03-29T05:57:49.619Z,1303
2019-03-29T05:58:49.737Z,1313
2019-03-29T05:59:49.789Z,1345
2019-03-29T06:00:49.872Z,1318
2019-03-29T06:01:49.930Z,1383
2019-03-29T06:02:49.977Z,1434
2019-03-29T06:03:50.045Z,1444
2019-03-29T06:04:50.113Z,1467
2019-03-29T06:05:50.186Z,1472
2019-03-29T06:06:51.256Z,1496
2019-03-29T06:07:50.334Z,1536
2019-03-29T06:08:50.380Z,1581
2019-03-29T06:09:50.431Z,1618
2019-03-29T06:10:50.484Z,1644
2019-03-29T06:11:50.527Z,1637
2019-03-29T06:12:50.580Z,1639
2019-03-29T06:13:50.624Z,1645
2019-03-29T06:14:50.700Z,1677
2019-03-29T06:15:50.779Z,1705
2019-03-29T06:16:50.824Z,1737
2019-03-29T06:17:50.872Z,1783
2019-03-29T06:18:50.993Z,1816
2019-03-29T06:19:50.983Z,1849
2019-03-29T06:20:51.060Z,1826
2019-03-29T06:21:51.107Z,1837
2019-03-29T06:22:51.151Z,1876
2019-03-29T06:23:51.200Z,1878
2019-03-29T06:24:51.241Z,1903
2019-03-29T06:25:51.341Z,1923
2019-03-29T06:26:51.374Z,1941
2019-03-29T06:27:51.427Z,1946
2019-03-29T06:28:51.465Z,1964
2019-03-29T06:29:51.507Z,1992
2019-03-29T06:30:51.623Z,2007
2019-03-29T06:31:51.663Z,2047
2019-03-29T06:32:51.719Z,2073
2019-03-29T06:33:51.766Z,2081
2019-03-29T06:34:51.828Z,2055
2019-03-29T06:35:51.934Z,2072
2019-03-29T06:36:51.973Z,2123
2019-03-29T06:37:52.021Z,2153
2019-03-29T06:38:52.100Z,2165
2019-03-29T06:39:52.144Z,2182
2019-03-29T06:41:02.022Z,2196
2019-03-29T06:41:53.243Z,2205
2019-03-29T06:42:52.288Z,2222
2019-03-29T06:43:52.332Z,2252
2019-03-29T06:44:52.377Z,2276
2019-03-29T06:45:52.633Z,2285
2019-03-29T06:46:52.510Z,2294
2019-03-29T06:47:52.559Z,2321
2019-03-29T06:48:52.600Z,2335
2019-03-29T06:49:52.660Z,2329
2019-03-29T06:50:52.986Z,2335
2019-03-29T06:51:52.830Z,2379
2019-03-29T06:52:52.888Z,2431
2019-03-29T06:53:52.920Z,2471
2019-03-29T06:54:52.974Z,2490
2019-03-29T06:55:53.031Z,2488
2019-03-29T06:56:53.132Z,2491
2019-03-29T06:57:53.210Z,2518
2019-03-29T06:58:53.287Z,2560
2019-03-29T06:59:53.388Z,2581
2019-03-29T07:00:53.438Z,2601
2019-03-29T07:01:53.526Z,2625
2019-03-29T07:02:53.566Z,2654
2019-03-29T07:03:53.595Z,2694
2019-03-29T07:04:53.683Z,2723
2019-03-29T07:05:54.716Z,2731
2019-03-29T07:06:53.794Z,2735
2019-03-29T07:07:53.845Z,2734
2019-03-29T07:08:53.892Z,2733
2019-03-29T07:09:53.947Z,2725
2019-03-29T07:10:53.992Z,2717
2019-03-29T07:11:55.103Z,2699
2019-03-29T07:12:56.328Z,2720
2019-03-29T07:13:57.587Z,2729
2019-03-29T07:14:54.248Z,2848
2019-03-29T07:15:54.302Z,2861
2019-03-29T07:16:54.415Z,2869
2019-03-29T07:17:54.475Z,2900
2019-03-29T07:18:54.527Z,2901
2019-03-29T07:19:55.555Z,2922
2019-03-29T07:20:54.607Z,2979
2019-03-29T07:21:54.726Z,2999
2019-03-29T07:22:54.777Z,3002
2019-03-29T07:23:54.821Z,3015
2019-03-29T07:24:54.914Z,3035
2019-03-29T07:25:56.477Z,3006
2019-03-29T07:26:54.914Z,3009
2019-03-29T07:27:54.981Z,3029
2019-03-29T07:28:55.060Z,3029
2019-03-29T07:29:55.200Z,3062
2019-03-29T07:30:55.255Z,3086
2019-03-29T07:31:55.373Z,3124
2019-03-29T07:32:55.427Z,3146
2019-03-29T07:33:55.472Z,3179
2019-03-29T07:34:55.522Z,3183
2019-03-29T07:35:55.570Z,3216
2019-03-29T07:36:55.746Z,3245
2019-03-29T07:37:56.823Z,3228
2019-03-29T07:38:55.877Z,3223
2019-03-29T07:39:55.915Z,3271
2019-03-29T07:40:56.001Z,3340
2019-03-29T07:41:56.073Z,3355
2019-03-29T07:42:56.142Z,3375
2019-03-29T07:43:56.177Z,3366
2019-03-29T07:44:56.228Z,3355
2019-03-29T07:45:56.273Z,3445
2019-03-29T07:46:56.387Z,3498
2019-03-29T07:47:56.441Z,3576
2019-03-29T07:48:56.495Z,3568
2019-03-29T07:49:56.577Z,3563
2019-03-29T07:50:56.614Z,3562
2019-03-29T07:51:56.684Z,3596
2019-03-29T07:52:56.733Z,3648
2019-03-29T07:53:56.800Z,3683
2019-03-29T07:54:56.934Z,3700
2019-03-29T07:55:56.987Z,3721
2019-03-29T07:56:57.098Z,3760
2019-03-29T07:57:57.175Z,3788
2019-03-29T07:58:57.220Z,3831
2019-03-29T07:59:57.269Z,4013
2019-03-29T08:00:57.322Z,3930
2019-03-29T08:01:57.388Z,4012
2019-03-29T08:02:57.425Z,4078
2019-03-29T08:03:57.472Z,4098
2019-03-29T08:04:57.536Z,4290
2019-03-29T08:05:57.619Z,4438
2019-03-29T08:06:57.706Z,4467
2019-03-29T08:07:57.773Z,4558
2019-03-29T08:08:57.827Z,4657
2019-03-29T08:09:57.877Z,4745
2019-03-29T08:10:59.046Z,4770
2019-03-29T08:11:57.962Z,4830
2019-03-29T08:12:58.003Z,5000
2019-03-29T08:13:58.076Z,4974
2019-03-29T08:14:58.145Z,5084
2019-03-29T08:15:59.154Z,8051
2019-03-29T08:16:58.196Z,24648
2019-03-29T08:18:01.342Z,32848
2019-03-29T08:18:58.292Z,29600
2019-03-29T08:20:24.803Z,26112
2019-03-29T08:20:59.389Z,29608
2019-03-29T08:21:58.449Z,33128
2019-03-29T08:22:58.459Z,29704
2019-03-29T08:23:58.506Z,24912
2019-03-29T08:24:59.307Z,26496
2019-03-29T08:25:58.594Z,31408
2019-03-29T08:26:58.664Z,27488
2019-03-29T08:27:58.675Z,21760
2019-03-29T08:28:58.831Z,22496
2019-03-29T08:29:58.838Z,24992
2019-03-29T08:30:58.848Z,30576
2019-03-29T08:31:58.948Z,26296
2019-03-29T08:32:58.950Z,31256
2019-03-29T08:33:59.023Z,32904
2019-03-29T08:34:59.118Z,27744
2019-03-29T08:35:59.191Z,28360
2019-03-29T08:36:59.235Z,31536
2019-03-29T08:37:59.275Z,34024
2019-03-29T08:38:59.302Z,27016
2019-03-29T08:40:00.403Z,21296
2019-03-29T08:40:59.418Z,25344
2019-03-29T08:42:00.666Z,26024
2019-03-29T08:42:59.473Z,23832
2019-03-29T08:43:59.534Z,25344
2019-03-29T08:44:59.553Z,22776
2019-03-29T08:45:59.594Z,24888
2019-03-29T08:46:59.689Z,21104
2019-03-29T08:47:59.839Z,17584
2019-03-29T08:48:59.869Z,23424
2019-03-29T08:49:59.944Z,23624
2019-03-29T08:51:00.980Z,22088
2019-03-29T08:52:00.027Z,19704
2019-03-29T08:53:00.115Z,16824
2019-03-29T08:54:00.192Z,11533
2019-03-29T08:55:00.408Z,8741
2019-03-29T08:56:00.333Z,11731
2019-03-29T08:57:00.343Z,14101
2019-03-29T08:58:01.476Z,11716
2019-03-29T08:59:00.496Z,17176
2019-03-29T09:00:00.662Z,19328
2019-03-29T09:01:00.837Z,16624
2019-03-29T09:02:00.759Z,13880
2019-03-29T09:03:00.842Z,18632
2019-03-29T09:04:05.377Z,22448
2019-03-29T09:05:00.890Z,14141
2019-03-29T09:06:00.910Z,21032
2019-03-29T09:07:00.938Z,29688
2019-03-29T09:08:01.030Z,24064
2019-03-29T09:09:01.083Z,17408
2019-03-29T09:10:02.169Z,17664
2019-03-29T09:11:01.365Z,24912
2019-03-29T09:12:13.615Z,31000
2019-03-29T09:13:04.314Z,38168
2019-03-29T09:14:01.579Z,27208
2019-03-29T09:15:03.560Z,27448
2019-03-29T09:16:01.751Z,27192
2019-03-29T09:17:01.775Z,21784
2019-03-29T09:18:01.919Z,27704
2019-03-29T09:19:02.060Z,31616
2019-03-29T09:20:02.194Z,27456
2019-03-29T09:21:02.277Z,20808
2019-03-29T09:22:02.355Z,19240
2019-03-29T09:23:02.322Z,13615
2019-03-29T09:24:02.352Z,13621
2019-03-29T09:25:03.449Z,32152
2019-03-29T09:26:02.522Z,32632
2019-03-29T09:27:02.598Z,23176
2019-03-29T09:28:02.655Z,28736
2019-03-29T09:29:02.672Z,34120
2019-03-29T09:30:05.051Z,30800
2019-03-29T09:31:02.802Z,23824
2019-03-29T09:32:02.791Z,23640
2019-03-29T09:33:02.936Z,17232
2019-03-29T09:34:03.042Z,11672
2019-03-29T09:35:03.099Z,18214
2019-03-29T09:36:04.918Z,43440
2019-03-29T09:37:03.228Z,40040
2019-03-29T09:38:03.349Z,17464
2019-03-29T09:39:03.443Z,18680
2019-03-29T09:40:03.499Z,34824
2019-03-29T09:41:04.535Z,29608
2019-03-29T09:42:03.572Z,26192
2019-03-29T09:43:07.911Z,21112
2019-03-29T09:44:03.650Z,7166
2019-03-29T09:45:03.714Z,10673
2019-03-29T09:46:03.779Z,23432
2019-03-29T09:47:03.792Z,26096
2019-03-29T09:48:03.866Z,39168
2019-03-29T09:49:03.952Z,33432
2019-03-29T09:50:04.105Z,32232
2019-03-29T09:51:04.103Z,45152
2019-03-29T09:52:04.212Z,54032
2019-03-29T09:53:04.272Z,51432
2019-03-29T09:54:04.321Z,29080
2019-03-29T09:55:04.371Z,17936
2019-03-29T09:56:04.422Z,23160
2019-03-29T09:57:04.474Z,18576
2019-03-29T09:58:05.524Z,9106
2019-03-29T09:59:05.654Z,12025
2019-03-29T10:00:17.646Z,25800
2019-03-29T10:01:05.699Z,28880
2019-03-29T10:02:04.749Z,30160
2019-03-29T10:03:04.854Z,18728
2019-03-29T10:04:04.871Z,21136
2019-03-29T10:05:04.928Z,29096
2019-03-29T10:06:04.982Z,38504
2019-03-29T10:07:06.087Z,39656
2019-03-29T10:08:05.154Z,25872
2019-03-29T10:09:05.219Z,12730
2019-03-29T10:10:05.349Z,10723
2019-03-29T10:11:06.426Z,9299
2019-03-29T10:12:05.541Z,18528
2019-03-29T10:13:05.561Z,24296
2019-03-29T10:14:05.609Z,26256
2019-03-29T10:15:05.710Z,24528
2019-03-29T10:16:05.771Z,22456
2019-03-29T10:17:05.837Z,21504
2019-03-29T10:18:05.992Z,20656
2019-03-29T10:19:06.034Z,30384
2019-03-29T10:20:06.110Z,22496
2019-03-29T10:21:06.180Z,26552
2019-03-29T10:22:07.312Z,34000
2019-03-29T10:23:06.493Z,29416
2019-03-29T10:24:06.427Z,22968
2019-03-29T10:25:18.246Z,25888
2019-03-29T10:26:07.586Z,32112
2019-03-29T10:27:06.727Z,36776
2019-03-29T10:28:07.857Z,36592
2019-03-29T10:29:06.917Z,41384
2019-03-29T10:30:06.989Z,45824
2019-03-29T10:31:07.011Z,41808
2019-03-29T10:32:09.371Z,42704
2019-03-29T10:33:07.158Z,47480
2019-03-29T10:34:07.107Z,59048
2019-03-29T10:35:07.253Z,47672
2019-03-29T10:36:07.309Z,41872
2019-03-29T10:37:07.354Z,28560
2019-03-29T10:38:07.472Z,19448
2019-03-29T10:39:08.548Z,19296
2019-03-29T10:40:07.596Z,28944
2019-03-29T10:41:07.809Z,42232
2019-03-29T10:42:07.833Z,33824
2019-03-29T10:43:07.932Z,22824
2019-03-29T10:44:08.047Z,27536
2019-03-29T10:45:08.090Z,33432
2019-03-29T10:46:08.195Z,46552
2019-03-29T10:47:08.234Z,53648
2019-03-29T10:48:08.357Z,44704
2019-03-29T10:49:08.470Z,42200
2019-03-29T10:50:08.616Z,54008
2019-03-29T10:51:08.710Z,65535
2019-03-29T10:52:09.029Z,57792
2019-03-29T10:53:09.195Z,40696
2019-03-29T10:54:09.115Z,30696
2019-03-29T10:55:09.210Z,43944
2019-03-29T10:56:09.171Z,58800
2019-03-29T10:57:09.278Z,59320
2019-03-29T10:58:09.921Z,50632
2019-03-29T10:59:09.483Z,39448
2019-03-29T11:00:10.514Z,44664
2019-03-29T11:01:10.577Z,56376
2019-03-29T11:02:09.665Z,61576
2019-03-29T11:03:09.755Z,51872
2019-03-29T11:04:09.872Z,43520
2019-03-29T11:05:09.967Z,42824
2019-03-29T11:06:10.090Z,40184
2019-03-29T11:07:10.216Z,44736
2019-03-29T11:08:11.825Z,61752
2019-03-29T11:09:10.427Z,57472
2019-03-29T11:10:10.570Z,65535
2019-03-29T11:11:10.691Z,65535
2019-03-29T11:12:10.784Z,55464
2019-03-29T11:13:13.798Z,30480
2019-03-29T11:14:11.012Z,21928
2019-03-29T11:15:11.085Z,34304
2019-03-29T11:16:11.200Z,65535
2019-03-29T11:17:11.251Z,65535
2019-03-29T11:18:11.353Z,65535
2019-03-29T11:19:11.489Z,55040
2019-03-29T11:20:11.534Z,31640
2019-03-29T11:21:11.598Z,41672
2019-03-29T11:22:11.685Z,65535
2019-03-29T11:23:11.786Z,65535
2019-03-29T11:24:11.839Z,65535
2019-03-29T11:25:11.949Z,65535
2019-03-29T11:26:12.034Z,65535
2019-03-29T11:27:12.131Z,65535
2019-03-29T11:28:13.222Z,65535
2019-03-29T11:29:13.280Z,60016
2019-03-29T11:30:12.336Z,48112
2019-03-29T11:31:12.395Z,52392
2019-03-29T11:32:12.454Z,65535
2019-03-29T11:33:12.499Z,65535
2019-03-29T11:34:12.589Z,65535
2019-03-29T11:35:12.637Z,65535
2019-03-29T11:36:12.685Z,65535
2019-03-29T11:37:12.743Z,65535
2019-03-29T11:38:12.808Z,58416
2019-03-29T11:39:12.973Z,62160
2019-03-29T11:40:12.902Z,65216
2019-03-29T11:41:12.948Z,64560
2019-03-29T11:42:12.994Z,65535
2019-03-29T11:43:25.905Z,65535
2019-03-29T11:44:14.093Z,65535
2019-03-29T11:45:13.137Z,65535
2019-03-29T11:46:13.267Z,65535
2019-03-29T11:47:13.348Z,65535
2019-03-29T11:48:13.437Z,64008
2019-03-29T11:49:13.517Z,64680
2019-03-29T11:50:13.567Z,65535
2019-03-29T11:51:19.434Z,65535
2019-03-29T11:52:13.653Z,65535
2019-03-29T11:53:13.724Z,65535
2019-03-29T11:54:13.848Z,65535
2019-03-29T11:55:13.904Z,65535
2019-03-29T11:56:13.964Z,65535
2019-03-29T11:57:14.021Z,65535
2019-03-29T11:58:14.072Z,65535
2019-03-29T11:59:14.293Z,65535
2019-03-29T12:00:14.184Z,65535
2019-03-29T12:01:14.239Z,65535
2019-03-29T12:02:14.317Z,65535
2019-03-29T12:03:15.346Z,65535
2019-03-29T12:04:14.442Z,65535
2019-03-29T12:05:14.532Z,65535
2019-03-29T12:06:14.574Z,65535
2019-03-29T12:07:14.643Z,65535
2019-03-29T12:08:14.752Z,65535
2019-03-29T12:09:14.806Z,65535
2019-03-29T12:10:14.908Z,65535
2019-03-29T12:11:14.972Z,65535
2019-03-29T12:12:15.043Z,65535
2019-03-29T12:13:15.157Z,65535
2019-03-29T12:14:15.188Z,65535
2019-03-29T12:15:15.269Z,65535
2019-03-29T12:16:15.332Z,65535
2019-03-29T12:17:15.393Z,65535
2019-03-29T12:18:15.462Z,65535
2019-03-29T12:19:15.498Z,65535
2019-03-29T12:20:15.600Z,65136
2019-03-29T12:21:15.658Z,65535
2019-03-29T12:22:15.743Z,65535
2019-03-29T12:23:15.807Z,65535
2019-03-29T12:24:15.911Z,61912
2019-03-29T12:25:15.962Z,51240
2019-03-29T12:26:16.022Z,65535
2019-03-29T12:27:16.140Z,65535
2019-03-29T12:28:16.326Z,65535
2019-03-29T12:29:16.271Z,65535
2019-03-29T12:30:30.429Z,65535
2019-03-29T12:31:17.487Z,65535
2019-03-29T12:32:16.524Z,65535
2019-03-29T12:33:16.604Z,65535
2019-03-29T12:34:16.664Z,65535
2019-03-29T12:35:16.767Z,65535
2019-03-29T12:36:16.830Z,65535
2019-03-29T12:37:16.925Z,65535
2019-03-29T12:38:16.998Z,65535
2019-03-29T12:39:17.066Z,65535
2019-03-29T12:40:17.259Z,65535
2019-03-29T12:41:17.291Z,65535
2019-03-29T12:42:17.374Z,55912
2019-03-29T12:43:17.428Z,61128
2019-03-29T12:44:17.510Z,65535
2019-03-29T12:45:17.609Z,65535
2019-03-29T12:46:17.670Z,65535
2019-03-29T12:47:17.735Z,65535
2019-03-29T12:48:17.798Z,53672
2019-03-29T12:49:17.861Z,62904
2019-03-29T12:50:17.924Z,65535
2019-03-29T12:51:17.971Z,65535
2019-03-29T12:52:18.026Z,65535
2019-03-29T12:53:18.102Z,58800
2019-03-29T12:54:18.170Z,48776
2019-03-29T12:55:18.259Z,55456
2019-03-29T12:56:18.350Z,64680
2019-03-29T12:57:18.468Z,65535
2019-03-29T12:58:18.522Z,65535
2019-03-29T12:59:18.582Z,65535
2019-03-29T13:00:18.665Z,65535
2019-03-29T13:01:18.733Z,65535
2019-03-29T13:02:19.812Z,59824
2019-03-29T13:03:18.893Z,47016
2019-03-29T13:04:18.915Z,53696
2019-03-29T13:05:19.003Z,65535
2019-03-29T13:06:19.054Z,65535
2019-03-29T13:07:19.108Z,65535
2019-03-29T13:08:19.176Z,65535
2019-03-29T13:09:19.233Z,65535
2019-03-29T13:10:19.342Z,65535
2019-03-29T13:11:19.396Z,65535
2019-03-29T13:12:19.456Z,64128
2019-03-29T13:13:19.521Z,60752
2019-03-29T13:14:19.595Z,59808
2019-03-29T13:15:19.677Z,58904
2019-03-29T13:16:19.731Z,52496
2019-03-29T13:17:19.773Z,47152
2019-03-29T13:18:19.832Z,51432
2019-03-29T13:19:19.885Z,64240
2019-03-29T13:20:19.977Z,65535
2019-03-29T13:21:20.032Z,65535
2019-03-29T13:22:20.085Z,62024
2019-03-29T13:23:20.316Z,52864
2019-03-29T13:24:20.256Z,52016
2019-03-29T13:25:20.350Z,57536
2019-03-29T13:26:20.416Z,62752
2019-03-29T13:27:20.448Z,61200
2019-03-29T13:28:20.490Z,49440
2019-03-29T13:29:20.556Z,43600
2019-03-29T13:30:20.637Z,48520
2019-03-29T13:31:20.739Z,60576
2019-03-29T13:32:20.779Z,65535
2019-03-29T13:33:21.000Z,65535
2019-03-29T13:34:20.895Z,65535
2019-03-29T13:35:20.986Z,61216
2019-03-29T13:36:21.066Z,53496
2019-03-29T13:37:21.132Z,56896
2019-03-29T13:38:21.248Z,64840
2019-03-29T13:39:21.327Z,65535
2019-03-29T13:40:21.590Z,62336